Airfield :







YOU CAN JOIN US ON...

 
LOGIN :

Register | Disclaimer

   EN    FR    IT 

 









Legend :    VFR   Marginal VFR   IFR   Intensive IFR   Very Intensive IFR
Visi :
Ceiling :
>= 8 km
>= 3000ft
5 to 8 km
1000 to 3000 ft
1500m to 5 km
500 to 1000 ft
800 to 1500m
200 to 500 ft
< 800m
< 200 ft
Symbols :   Thunderstorms  Fog  Heavy snow  Heavy precipitations  Wind > 20 kt







- Airport Elevation : 335 ft
- IATA code : BTV


KBTV - Burlington International

CURRENT METAR :
  • 171754Z 21008KT 10SM FEW018 BKN044 27/22 A2987 RMK AO2 SLP113 60003 T02670217 10272 20228 55004

EXPIRED METARs :
  • 171654Z 19008KT 10SM FEW018 BKN065 OVC075 27/22 A2986 RMK AO2 SLP109 T02670217
  • 171614Z 21007KT 10SM SCT013 BKN046 27/22 A2987 RMK AO2 T02670217
  • 171554Z 19008KT 10SM BKN011 BKN040 26/22 A2988 RMK AO2 SLP115 T02560217
  • 171522Z 19010KT 10SM OVC010 24/22 A2989 RMK AO2 CIG 009V014 T02440217

TAF KBTV
Valid from the 17 at 18:00 until the 18 at 18:00 UTC


171739Z 1718/1818 21006KT P6SM VCSH BKN060
TEMPO 1718/1722 4SM TSRA BR BKN045CB
FM180400 00000KT P6SM BKN090
FM181600 15005KT P6SM SCT060
KZBW FIR / North America



MET'MAP, your aeronautical weather chart ! - Copyright ORBIFLY December 2007 - Disclaimer

ORBIFLY MET'MAP TEAM :

Programming & Development : Alexandra Zaïnal
Concept & Development : Baudouin d'Aumeries
Co-Development & Prog : Marc-Olivier Méhu
Technical & hardware support : Manuel Goepfert

Contact : metmap@orbifly.com




SOURCES & CREDITS :

   NOAA